sensor_id;sensor_type;location;lat;lon;timestamp;P1;durP1;ratioP1;P2;durP2;ratioP2
16426;SDS011;8322;-33.900;151.170;2024-01-30T00:02:07;13.27;;;3.17;;
16426;SDS011;8322;-33.900;151.170;2024-01-30T00:04:36;12.65;;;3.78;;
16426;SDS011;8322;-33.900;151.170;2024-01-30T00:07:06;9.07;;;3.55;;
16426;SDS011;8322;-33.900;151.170;2024-01-30T00:09:35;8.00;;;2.92;;
16426;SDS011;8322;-33.900;151.170;2024-01-30T00:12:07;13.43;;;3.53;;
16426;SDS011;8322;-33.900;151.170;2024-01-30T00:14:36;11.52;;;3.20;;
16426;SDS011;8322;-33.900;151.170;2024-01-30T00:17:06;10.60;;;3.40;;
16426;SDS011;8322;-33.900;151.170;2024-01-30T00:19:35;15.93;;;3.88;;
16426;SDS011;8322;-33.900;151.170;2024-01-30T00:22:05;12.85;;;3.80;;
16426;SDS011;8322;-33.900;151.170;2024-01-30T00:24:34;14.40;;;3.85;;
16426;SDS011;8322;-33.900;151.170;2024-01-30T00:27:04;13.52;;;3.40;;
16426;SDS011;8322;-33.900;151.170;2024-01-30T00:29:36;11.63;;;3.78;;
16426;SDS011;8322;-33.900;151.170;2024-01-30T00:32:05;14.70;;;3.72;;
16426;SDS011;8322;-33.900;151.170;2024-01-30T00:34:35;13.63;;;3.55;;
16426;SDS011;8322;-33.900;151.170;2024-01-30T00:37:04;12.90;;;3.85;;
16426;SDS011;8322;-33.900;151.170;2024-01-30T00:39:34;16.52;;;4.00;;
16426;SDS011;8322;-33.900;151.170;2024-01-30T00:42:03;13.93;;;3.95;;
16426;SDS011;8322;-33.900;151.170;2024-01-30T00:44:36;19.98;;;3.92;;
16426;SDS011;8322;-33.900;151.170;2024-01-30T00:47:06;12.27;;;3.40;;
16426;SDS011;8322;-33.900;151.170;2024-01-30T00:49:35;13.45;;;3.55;;
16426;SDS011;8322;-33.900;151.170;2024-01-30T00:52:05;13.75;;;3.42;;
16426;SDS011;8322;-33.900;151.170;2024-01-30T00:54:35;9.57;;;3.20;;
16426;SDS011;8322;-33.900;151.170;2024-01-30T00:57:04;12.82;;;3.40;;
16426;SDS011;8322;-33.900;151.170;2024-01-30T00:59:34;9.43;;;3.58;;
16426;SDS011;8322;-33.900;151.170;2024-01-30T01:02:05;14.15;;;3.97;;
16426;SDS011;8322;-33.900;151.170;2024-01-30T01:04:35;13.10;;;3.50;;
16426;SDS011;8322;-33.900;151.170;2024-01-30T01:07:04;12.75;;;3.45;;
16426;SDS011;8322;-33.900;151.170;2024-01-30T01:09:34;13.95;;;3.65;;
16426;SDS011;8322;-33.900;151.170;2024-01-30T01:12:03;10.10;;;4.00;;
16426;SDS011;8322;-33.900;151.170;2024-01-30T01:14:33;8.35;;;3.03;;
16426;SDS011;8322;-33.900;151.170;2024-01-30T01:17:02;11.63;;;3.33;;
16426;SDS011;8322;-33.900;151.170;2024-01-30T01:19:34;11.60;;;3.75;;
16426;SDS011;8322;-33.900;151.170;2024-01-30T01:22:03;13.35;;;3.75;;
16426;SDS011;8322;-33.900;151.170;2024-01-30T01:24:33;9.85;;;3.00;;
16426;SDS011;8322;-33.900;151.170;2024-01-30T01:27:02;10.52;;;3.55;;
16426;SDS011;8322;-33.900;151.170;2024-01-30T01:29:32;9.10;;;3.05;;
16426;SDS011;8322;-33.900;151.170;2024-01-30T01:32:01;14.65;;;3.83;;
16426;SDS011;8322;-33.900;151.170;2024-01-30T01:34:33;11.13;;;3.92;;
16426;SDS011;8322;-33.900;151.170;2024-01-30T01:37:03;10.93;;;3.63;;
16426;SDS011;8322;-33.900;151.170;2024-01-30T01:39:33;13.35;;;3.58;;
16426;SDS011;8322;-33.900;151.170;2024-01-30T01:42:03;12.73;;;3.35;;
16426;SDS011;8322;-33.900;151.170;2024-01-30T01:44:32;9.98;;;3.67;;
16426;SDS011;8322;-33.900;151.170;2024-01-30T01:47:02;15.00;;;4.10;;
16426;SDS011;8322;-33.900;151.170;2024-01-30T01:49:33;14.40;;;4.05;;
16426;SDS011;8322;-33.900;151.170;2024-01-30T01:52:03;15.40;;;4.43;;
16426;SDS011;8322;-33.900;151.170;2024-01-30T01:54:33;13.10;;;3.92;;
16426;SDS011;8322;-33.900;151.170;2024-01-30T01:57:02;10.75;;;3.65;;
16426;SDS011;8322;-33.900;151.170;2024-01-30T01:59:32;11.82;;;3.90;;
16426;SDS011;8322;-33.900;151.170;2024-01-30T02:02:02;13.85;;;3.85;;
16426;SDS011;8322;-33.900;151.170;2024-01-30T02:04:35;12.00;;;3.80;;
16426;SDS011;8322;-33.900;151.170;2024-01-30T02:07:04;12.25;;;3.65;;
16426;SDS011;8322;-33.900;151.170;2024-01-30T02:09:34;10.98;;;3.67;;
16426;SDS011;8322;-33.900;151.170;2024-01-30T02:12:04;13.75;;;3.67;;
16426;SDS011;8322;-33.900;151.170;2024-01-30T02:14:33;12.00;;;3.30;;
16426;SDS011;8322;-33.900;151.170;2024-01-30T02:17:13;11.85;;;3.70;;
16426;SDS011;8322;-33.900;151.170;2024-01-30T02:19:44;12.30;;;3.30;;
16426;SDS011;8322;-33.900;151.170;2024-01-30T02:22:16;13.82;;;3.53;;
16426;SDS011;8322;-33.900;151.170;2024-01-30T02:24:45;13.63;;;3.85;;
16426;SDS011;8322;-33.900;151.170;2024-01-30T02:27:15;9.15;;;3.25;;
16426;SDS011;8322;-33.900;151.170;2024-01-30T02:29:44;11.30;;;3.05;;
16426;SDS011;8322;-33.900;151.170;2024-01-30T02:32:14;11.18;;;3.35;;
16426;SDS011;8322;-33.900;151.170;2024-01-30T02:34:43;12.02;;;4.00;;
16426;SDS011;8322;-33.900;151.170;2024-01-30T02:37:13;14.32;;;3.80;;
16426;SDS011;8322;-33.900;151.170;2024-01-30T02:39:44;12.27;;;3.63;;
16426;SDS011;8322;-33.900;151.170;2024-01-30T02:42:14;11.77;;;3.10;;
16426;SDS011;8322;-33.900;151.170;2024-01-30T02:44:43;16.38;;;3.85;;
16426;SDS011;8322;-33.900;151.170;2024-01-30T02:47:13;10.98;;;3.20;;
16426;SDS011;8322;-33.900;151.170;2024-01-30T02:49:42;14.32;;;3.30;;
16426;SDS011;8322;-33.900;151.170;2024-01-30T02:52:11;14.00;;;3.22;;
16426;SDS011;8322;-33.900;151.170;2024-01-30T02:54:41;12.80;;;3.05;;
16426;SDS011;8322;-33.900;151.170;2024-01-30T02:57:12;12.23;;;3.05;;
16426;SDS011;8322;-33.900;151.170;2024-01-30T02:59:42;10.95;;;2.85;;
16426;SDS011;8322;-33.900;151.170;2024-01-30T03:02:11;13.25;;;3.05;;
16426;SDS011;8322;-33.900;151.170;2024-01-30T03:04:41;11.35;;;2.72;;
16426;SDS011;8322;-33.900;151.170;2024-01-30T03:07:10;15.05;;;3.40;;
16426;SDS011;8322;-33.900;151.170;2024-01-30T03:09:41;12.82;;;3.30;;
16426;SDS011;8322;-33.900;151.170;2024-01-30T03:12:13;11.40;;;2.90;;
16426;SDS011;8322;-33.900;151.170;2024-01-30T03:14:42;10.85;;;2.97;;
16426;SDS011;8322;-33.900;151.170;2024-01-30T03:17:11;12.80;;;2.83;;
16426;SDS011;8322;-33.900;151.170;2024-01-30T03:19:41;13.45;;;3.00;;
16426;SDS011;8322;-33.900;151.170;2024-01-30T03:22:10;15.02;;;2.83;;
16426;SDS011;8322;-33.900;151.170;2024-01-30T03:24:40;12.88;;;4.45;;
16426;SDS011;8322;-33.900;151.170;2024-01-30T03:27:09;15.60;;;3.20;;
16426;SDS011;8322;-33.900;151.170;2024-01-30T03:29:41;12.02;;;3.00;;
16426;SDS011;8322;-33.900;151.170;2024-01-30T03:32:10;18.67;;;3.85;;
16426;SDS011;8322;-33.900;151.170;2024-01-30T03:34:40;12.52;;;2.97;;
16426;SDS011;8322;-33.900;151.170;2024-01-30T03:37:09;10.48;;;3.13;;
16426;SDS011;8322;-33.900;151.170;2024-01-30T03:39:38;17.02;;;3.30;;
16426;SDS011;8322;-33.900;151.170;2024-01-30T03:42:08;11.82;;;3.75;;
16426;SDS011;8322;-33.900;151.170;2024-01-30T03:44:37;16.15;;;2.97;;
16426;SDS011;8322;-33.900;151.170;2024-01-30T03:47:09;11.52;;;2.80;;
16426;SDS011;8322;-33.900;151.170;2024-01-30T03:49:38;15.43;;;2.92;;
16426;SDS011;8322;-33.900;151.170;2024-01-30T03:52:08;12.48;;;3.17;;
16426;SDS011;8322;-33.900;151.170;2024-01-30T03:54:37;13.25;;;3.25;;
16426;SDS011;8322;-33.900;151.170;2024-01-30T03:57:07;13.20;;;3.50;;
16426;SDS011;8322;-33.900;151.170;2024-01-30T03:59:36;12.15;;;3.35;;
16426;SDS011;8322;-33.900;151.170;2024-01-30T04:02:05;13.10;;;3.20;;
16426;SDS011;8322;-33.900;151.170;2024-01-30T04:04:37;13.75;;;3.13;;
16426;SDS011;8322;-33.900;151.170;2024-01-30T04:07:06;12.88;;;3.38;;
16426;SDS011;8322;-33.900;151.170;2024-01-30T04:09:36;12.05;;;2.88;;
16426;SDS011;8322;-33.900;151.170;2024-01-30T04:12:05;20.70;;;3.28;;
16426;SDS011;8322;-33.900;151.170;2024-01-30T04:14:35;10.95;;;3.28;;
16426;SDS011;8322;-33.900;151.170;2024-01-30T04:17:04;12.32;;;2.80;;
16426;SDS011;8322;-33.900;151.170;2024-01-30T04:19:39;14.40;;;3.30;;
16426;SDS011;8322;-33.900;151.170;2024-01-30T04:22:08;13.63;;;3.47;;
16426;SDS011;8322;-33.900;151.170;2024-01-30T04:24:37;12.18;;;3.80;;
16426;SDS011;8322;-33.900;151.170;2024-01-30T04:27:07;13.15;;;3.03;;
16426;SDS011;8322;-33.900;151.170;2024-01-30T04:29:36;13.75;;;3.25;;
16426;SDS011;8322;-33.900;151.170;2024-01-30T04:32:06;14.73;;;2.80;;
16426;SDS011;8322;-33.900;151.170;2024-01-30T04:34:36;13.23;;;2.70;;
16426;SDS011;8322;-33.900;151.170;2024-01-30T04:37:07;14.43;;;3.45;;
16426;SDS011;8322;-33.900;151.170;2024-01-30T04:39:37;17.15;;;3.03;;
16426;SDS011;8322;-33.900;151.170;2024-01-30T04:42:07;15.07;;;2.83;;
16426;SDS011;8322;-33.900;151.170;2024-01-30T04:44:36;12.43;;;3.20;;
16426;SDS011;8322;-33.900;151.170;2024-01-30T04:47:05;17.77;;;3.20;;
16426;SDS011;8322;-33.900;151.170;2024-01-30T04:49:37;16.95;;;3.25;;
16426;SDS011;8322;-33.900;151.170;2024-01-30T04:52:08;14.05;;;3.25;;
16426;SDS011;8322;-33.900;151.170;2024-01-30T04:54:38;13.77;;;3.38;;
16426;SDS011;8322;-33.900;151.170;2024-01-30T04:57:07;14.52;;;2.92;;
16426;SDS011;8322;-33.900;151.170;2024-01-30T04:59:38;12.13;;;3.33;;
16426;SDS011;8322;-33.900;151.170;2024-01-30T05:02:07;11.02;;;2.78;;
16426;SDS011;8322;-33.900;151.170;2024-01-30T05:04:37;18.13;;;2.78;;
16426;SDS011;8322;-33.900;151.170;2024-01-30T05:07:08;10.50;;;2.80;;
16426;SDS011;8322;-33.900;151.170;2024-01-30T05:09:38;10.38;;;2.50;;
16426;SDS011;8322;-33.900;151.170;2024-01-30T05:12:07;13.88;;;2.90;;
16426;SDS011;8322;-33.900;151.170;2024-01-30T05:14:37;13.63;;;3.22;;
16426;SDS011;8322;-33.900;151.170;2024-01-30T05:17:06;16.73;;;3.30;;
16426;SDS011;8322;-33.900;151.170;2024-01-30T05:19:36;12.55;;;2.88;;
16426;SDS011;8322;-33.900;151.170;2024-01-30T05:22:05;18.67;;;3.33;;
16426;SDS011;8322;-33.900;151.170;2024-01-30T05:24:37;16.38;;;3.40;;
16426;SDS011;8322;-33.900;151.170;2024-01-30T05:27:06;10.98;;;3.17;;
16426;SDS011;8322;-33.900;151.170;2024-01-30T05:29:36;19.83;;;3.60;;
16426;SDS011;8322;-33.900;151.170;2024-01-30T05:32:05;16.70;;;3.30;;
16426;SDS011;8322;-33.900;151.170;2024-01-30T05:34:35;16.65;;;3.05;;
16426;SDS011;8322;-33.900;151.170;2024-01-30T05:37:05;18.92;;;3.47;;
16426;SDS011;8322;-33.900;151.170;2024-01-30T05:39:34;15.45;;;3.28;;
16426;SDS011;8322;-33.900;151.170;2024-01-30T05:42:06;13.45;;;4.00;;
16426;SDS011;8322;-33.900;151.170;2024-01-30T05:44:36;14.57;;;3.28;;
16426;SDS011;8322;-33.900;151.170;2024-01-30T05:47:05;16.42;;;3.50;;
16426;SDS011;8322;-33.900;151.170;2024-01-30T05:49:35;17.45;;;3.30;;
16426;SDS011;8322;-33.900;151.170;2024-01-30T05:52:05;17.02;;;3.65;;
16426;SDS011;8322;-33.900;151.170;2024-01-30T05:54:34;16.52;;;3.55;;
16426;SDS011;8322;-33.900;151.170;2024-01-30T05:57:06;20.48;;;3.85;;
16426;SDS011;8322;-33.900;151.170;2024-01-30T05:59:35;15.23;;;3.40;;
16426;SDS011;8322;-33.900;151.170;2024-01-30T06:02:05;14.45;;;3.72;;
16426;SDS011;8322;-33.900;151.170;2024-01-30T06:04:34;13.40;;;3.58;;
16426;SDS011;8322;-33.900;151.170;2024-01-30T06:07:04;18.52;;;5.85;;
16426;SDS011;8322;-33.900;151.170;2024-01-30T06:09:34;16.52;;;3.47;;
16426;SDS011;8322;-33.900;151.170;2024-01-30T06:12:06;14.68;;;3.40;;
16426;SDS011;8322;-33.900;151.170;2024-01-30T06:14:37;18.00;;;3.70;;
16426;SDS011;8322;-33.900;151.170;2024-01-30T06:17:08;14.40;;;3.63;;
16426;SDS011;8322;-33.900;151.170;2024-01-30T06:19:38;18.08;;;4.03;;
16426;SDS011;8322;-33.900;151.170;2024-01-30T06:22:07;16.27;;;3.60;;
16426;SDS011;8322;-33.900;151.170;2024-01-30T06:24:37;17.67;;;3.97;;
16426;SDS011;8322;-33.900;151.170;2024-01-30T06:27:08;20.33;;;4.38;;
16426;SDS011;8322;-33.900;151.170;2024-01-30T06:29:38;17.55;;;3.40;;
16426;SDS011;8322;-33.900;151.170;2024-01-30T06:32:07;17.23;;;3.35;;
16426;SDS011;8322;-33.900;151.170;2024-01-30T06:34:37;18.83;;;3.85;;
16426;SDS011;8322;-33.900;151.170;2024-01-30T06:37:06;20.73;;;3.83;;
16426;SDS011;8322;-33.900;151.170;2024-01-30T06:39:36;19.30;;;3.72;;
16426;SDS011;8322;-33.900;151.170;2024-01-30T06:42:05;18.17;;;3.63;;
16426;SDS011;8322;-33.900;151.170;2024-01-30T06:44:36;18.08;;;3.72;;
16426;SDS011;8322;-33.900;151.170;2024-01-30T06:47:06;22.80;;;4.60;;
16426;SDS011;8322;-33.900;151.170;2024-01-30T06:49:35;19.38;;;3.45;;
16426;SDS011;8322;-33.900;151.170;2024-01-30T06:52:08;17.35;;;3.70;;
16426;SDS011;8322;-33.900;151.170;2024-01-30T06:54:37;13.10;;;3.72;;
16426;SDS011;8322;-33.900;151.170;2024-01-30T06:57:07;21.85;;;3.88;;
16426;SDS011;8322;-33.900;151.170;2024-01-30T06:59:39;16.88;;;3.97;;
16426;SDS011;8322;-33.900;151.170;2024-01-30T07:02:10;22.42;;;4.20;;
16426;SDS011;8322;-33.900;151.170;2024-01-30T07:04:39;19.95;;;3.72;;
16426;SDS011;8322;-33.900;151.170;2024-01-30T07:07:09;19.65;;;3.85;;
16426;SDS011;8322;-33.900;151.170;2024-01-30T07:09:41;15.85;;;3.70;;
16426;SDS011;8322;-33.900;151.170;2024-01-30T07:12:10;13.60;;;3.25;;
16426;SDS011;8322;-33.900;151.170;2024-01-30T07:14:42;16.48;;;3.70;;
16426;SDS011;8322;-33.900;151.170;2024-01-30T07:17:11;21.38;;;3.90;;
16426;SDS011;8322;-33.900;151.170;2024-01-30T07:19:41;17.33;;;3.55;;
16426;SDS011;8322;-33.900;151.170;2024-01-30T07:22:10;14.45;;;3.25;;
16426;SDS011;8322;-33.900;151.170;2024-01-30T07:24:42;19.02;;;4.18;;
16426;SDS011;8322;-33.900;151.170;2024-01-30T07:27:14;15.30;;;3.42;;
16426;SDS011;8322;-33.900;151.170;2024-01-30T07:29:45;17.83;;;4.28;;
16426;SDS011;8322;-33.900;151.170;2024-01-30T07:32:15;21.15;;;4.22;;
16426;SDS011;8322;-33.900;151.170;2024-01-30T07:34:44;16.48;;;3.88;;
16426;SDS011;8322;-33.900;151.170;2024-01-30T07:37:14;21.92;;;3.97;;
16426;SDS011;8322;-33.900;151.170;2024-01-30T07:39:43;18.40;;;3.47;;
16426;SDS011;8322;-33.900;151.170;2024-01-30T07:42:13;18.58;;;3.80;;
16426;SDS011;8322;-33.900;151.170;2024-01-30T07:44:45;21.73;;;3.78;;
16426;SDS011;8322;-33.900;151.170;2024-01-30T07:47:14;19.67;;;3.90;;
16426;SDS011;8322;-33.900;151.170;2024-01-30T07:49:44;20.52;;;4.20;;
16426;SDS011;8322;-33.900;151.170;2024-01-30T07:52:13;23.88;;;4.30;;
16426;SDS011;8322;-33.900;151.170;2024-01-30T07:54:49;21.52;;;4.18;;
16426;SDS011;8322;-33.900;151.170;2024-01-30T07:57:19;18.63;;;3.83;;
16426;SDS011;8322;-33.900;151.170;2024-01-30T07:59:50;24.52;;;4.75;;
16426;SDS011;8322;-33.900;151.170;2024-01-30T08:02:19;17.25;;;3.85;;
16426;SDS011;8322;-33.900;151.170;2024-01-30T08:04:49;18.50;;;4.05;;
16426;SDS011;8322;-33.900;151.170;2024-01-30T08:07:18;24.40;;;5.63;;
16426;SDS011;8322;-33.900;151.170;2024-01-30T08:09:48;25.75;;;4.10;;
16426;SDS011;8322;-33.900;151.170;2024-01-30T08:12:17;20.20;;;4.13;;
16426;SDS011;8322;-33.900;151.170;2024-01-30T08:14:47;15.55;;;3.80;;
16426;SDS011;8322;-33.900;151.170;2024-01-30T08:17:18;16.05;;;3.85;;
16426;SDS011;8322;-33.900;151.170;2024-01-30T08:19:47;23.73;;;4.38;;
16426;SDS011;8322;-33.900;151.170;2024-01-30T08:22:17;18.92;;;4.22;;
16426;SDS011;8322;-33.900;151.170;2024-01-30T08:27:50;21.95;;;4.60;;
16426;SDS011;8322;-33.900;151.170;2024-01-30T08:30:19;21.80;;;4.60;;
16426;SDS011;8322;-33.900;151.170;2024-01-30T08:32:50;20.35;;;4.07;;
16426;SDS011;8322;-33.900;151.170;2024-01-30T08:35:20;20.88;;;4.18;;
16426;SDS011;8322;-33.900;151.170;2024-01-30T08:37:49;18.10;;;3.55;;
16426;SDS011;8322;-33.900;151.170;2024-01-30T08:40:21;15.80;;;4.28;;
16426;SDS011;8322;-33.900;151.170;2024-01-30T08:42:51;18.65;;;4.22;;
16426;SDS011;8322;-33.900;151.170;2024-01-30T08:45:20;15.65;;;3.72;;
16426;SDS011;8322;-33.900;151.170;2024-01-30T08:47:51;22.60;;;4.30;;
16426;SDS011;8322;-33.900;151.170;2024-01-30T08:50:21;20.45;;;3.85;;
16426;SDS011;8322;-33.900;151.170;2024-01-30T08:52:50;23.30;;;4.45;;
16426;SDS011;8322;-33.900;151.170;2024-01-30T08:55:20;21.00;;;5.05;;
16426;SDS011;8322;-33.900;151.170;2024-01-30T08:57:49;18.40;;;4.18;;
16426;SDS011;8322;-33.900;151.170;2024-01-30T09:00:19;25.02;;;5.13;;
16426;SDS011;8322;-33.900;151.170;2024-01-30T09:02:49;24.38;;;4.85;;
16426;SDS011;8322;-33.900;151.170;2024-01-30T09:05:20;23.73;;;4.50;;
16426;SDS011;8322;-33.900;151.170;2024-01-30T09:07:50;21.40;;;4.57;;
16426;SDS011;8322;-33.900;151.170;2024-01-30T09:10:19;17.27;;;3.88;;
16426;SDS011;8322;-33.900;151.170;2024-01-30T09:12:49;21.88;;;4.32;;
16426;SDS011;8322;-33.900;151.170;2024-01-30T09:15:18;19.05;;;3.92;;
16426;SDS011;8322;-33.900;151.170;2024-01-30T09:17:48;22.48;;;4.03;;
16426;SDS011;8322;-33.900;151.170;2024-01-30T09:20:17;24.83;;;4.63;;
16426;SDS011;8322;-33.900;151.170;2024-01-30T09:22:50;20.77;;;3.72;;
16426;SDS011;8322;-33.900;151.170;2024-01-30T09:25:19;20.95;;;4.03;;
16426;SDS011;8322;-33.900;151.170;2024-01-30T09:27:49;23.20;;;3.67;;
16426;SDS011;8322;-33.900;151.170;2024-01-30T09:30:18;27.85;;;4.70;;
16426;SDS011;8322;-33.900;151.170;2024-01-30T09:32:48;22.67;;;4.03;;
16426;SDS011;8322;-33.900;151.170;2024-01-30T09:35:17;20.10;;;4.22;;
16426;SDS011;8322;-33.900;151.170;2024-01-30T09:37:46;25.00;;;4.50;;
16426;SDS011;8322;-33.900;151.170;2024-01-30T09:40:19;19.15;;;3.80;;
16426;SDS011;8322;-33.900;151.170;2024-01-30T09:42:50;18.00;;;3.63;;
16426;SDS011;8322;-33.900;151.170;2024-01-30T09:45:19;25.10;;;4.55;;
16426;SDS011;8322;-33.900;151.170;2024-01-30T09:47:49;25.75;;;4.85;;
16426;SDS011;8322;-33.900;151.170;2024-01-30T09:50:19;26.23;;;4.63;;
16426;SDS011;8322;-33.900;151.170;2024-01-30T09:52:48;23.08;;;3.97;;
16426;SDS011;8322;-33.900;151.170;2024-01-30T09:55:20;22.70;;;4.68;;
16426;SDS011;8322;-33.900;151.170;2024-01-30T09:57:50;33.92;;;4.85;;
16426;SDS011;8322;-33.900;151.170;2024-01-30T10:00:20;25.63;;;3.97;;
16426;SDS011;8322;-33.900;151.170;2024-01-30T10:02:53;27.75;;;4.63;;
16426;SDS011;8322;-33.900;151.170;2024-01-30T10:05:22;26.88;;;4.32;;
16426;SDS011;8322;-33.900;151.170;2024-01-30T10:07:56;23.70;;;4.10;;
16426;SDS011;8322;-33.900;151.170;2024-01-30T10:10:27;20.33;;;4.07;;
16426;SDS011;8322;-33.900;151.170;2024-01-30T10:12:57;18.45;;;3.78;;
16426;SDS011;8322;-33.900;151.170;2024-01-30T10:15:26;23.20;;;4.57;;
16426;SDS011;8322;-33.900;151.170;2024-01-30T10:17:57;26.15;;;4.35;;
16426;SDS011;8322;-33.900;151.170;2024-01-30T10:20:26;25.27;;;4.53;;
16426;SDS011;8322;-33.900;151.170;2024-01-30T10:22:56;22.85;;;3.55;;
16426;SDS011;8322;-33.900;151.170;2024-01-30T10:25:30;26.55;;;4.65;;
16426;SDS011;8322;-33.900;151.170;2024-01-30T10:28:00;19.85;;;3.90;;
16426;SDS011;8322;-33.900;151.170;2024-01-30T10:30:29;19.23;;;3.80;;
16426;SDS011;8322;-33.900;151.170;2024-01-30T10:39:06;17.48;;;3.97;;
16426;SDS011;8322;-33.900;151.170;2024-01-30T10:41:42;17.13;;;3.72;;
16426;SDS011;8322;-33.900;151.170;2024-01-30T10:44:12;24.45;;;4.30;;
16426;SDS011;8322;-33.900;151.170;2024-01-30T10:46:44;29.88;;;4.95;;
16426;SDS011;8322;-33.900;151.170;2024-01-30T10:49:15;23.55;;;4.28;;
16426;SDS011;8322;-33.900;151.170;2024-01-30T10:51:45;26.75;;;4.40;;
16426;SDS011;8322;-33.900;151.170;2024-01-30T10:54:15;30.08;;;4.40;;
16426;SDS011;8322;-33.900;151.170;2024-01-30T10:56:47;19.63;;;4.13;;
16426;SDS011;8322;-33.900;151.170;2024-01-30T10:59:17;19.42;;;3.72;;
16426;SDS011;8322;-33.900;151.170;2024-01-30T11:01:47;32.95;;;4.43;;
16426;SDS011;8322;-33.900;151.170;2024-01-30T11:04:17;25.00;;;4.30;;
16426;SDS011;8322;-33.900;151.170;2024-01-30T11:06:46;24.15;;;4.65;;
16426;SDS011;8322;-33.900;151.170;2024-01-30T11:09:18;26.33;;;4.00;;
16426;SDS011;8322;-33.900;151.170;2024-01-30T11:11:50;22.27;;;4.32;;
16426;SDS011;8322;-33.900;151.170;2024-01-30T11:14:23;21.95;;;4.15;;
16426;SDS011;8322;-33.900;151.170;2024-01-30T11:16:56;23.17;;;4.30;;
16426;SDS011;8322;-33.900;151.170;2024-01-30T11:19:30;24.35;;;4.07;;
16426;SDS011;8322;-33.900;151.170;2024-01-30T11:22:00;23.83;;;4.18;;
16426;SDS011;8322;-33.900;151.170;2024-01-30T11:24:30;27.80;;;4.82;;
16426;SDS011;8322;-33.900;151.170;2024-01-30T11:27:09;23.13;;;4.22;;
16426;SDS011;8322;-33.900;151.170;2024-01-30T11:29:39;18.00;;;4.38;;
16426;SDS011;8322;-33.900;151.170;2024-01-30T11:32:09;21.65;;;4.13;;
16426;SDS011;8322;-33.900;151.170;2024-01-30T11:34:40;20.55;;;3.90;;
16426;SDS011;8322;-33.900;151.170;2024-01-30T11:37:10;20.23;;;4.30;;
16426;SDS011;8322;-33.900;151.170;2024-01-30T11:39:41;20.05;;;4.65;;
16426;SDS011;8322;-33.900;151.170;2024-01-30T11:42:15;26.10;;;4.40;;
16426;SDS011;8322;-33.900;151.170;2024-01-30T11:44:46;22.63;;;4.10;;
16426;SDS011;8322;-33.900;151.170;2024-01-30T11:47:16;21.45;;;4.13;;
16426;SDS011;8322;-33.900;151.170;2024-01-30T11:49:45;17.13;;;3.95;;
16426;SDS011;8322;-33.900;151.170;2024-01-30T11:52:15;16.67;;;4.05;;
16426;SDS011;8322;-33.900;151.170;2024-01-30T11:54:45;16.50;;;3.75;;
16426;SDS011;8322;-33.900;151.170;2024-01-30T11:57:16;17.65;;;4.10;;
16426;SDS011;8322;-33.900;151.170;2024-01-30T11:59:46;18.77;;;4.00;;
16426;SDS011;8322;-33.900;151.170;2024-01-30T12:02:18;19.40;;;4.50;;
16426;SDS011;8322;-33.900;151.170;2024-01-30T12:04:48;23.70;;;4.40;;
16426;SDS011;8322;-33.900;151.170;2024-01-30T12:07:17;18.58;;;4.32;;
16426;SDS011;8322;-33.900;151.170;2024-01-30T12:09:52;21.33;;;4.18;;
16426;SDS011;8322;-33.900;151.170;2024-01-30T12:12:23;22.70;;;4.13;;
16426;SDS011;8322;-33.900;151.170;2024-01-30T12:14:54;24.40;;;4.25;;
16426;SDS011;8322;-33.900;151.170;2024-01-30T12:17:25;27.08;;;4.82;;
16426;SDS011;8322;-33.900;151.170;2024-01-30T12:20:02;19.15;;;4.28;;
16426;SDS011;8322;-33.900;151.170;2024-01-30T12:22:34;20.77;;;4.32;;
16426;SDS011;8322;-33.900;151.170;2024-01-30T12:25:07;20.27;;;4.57;;
16426;SDS011;8322;-33.900;151.170;2024-01-30T12:27:38;17.58;;;3.85;;
16426;SDS011;8322;-33.900;151.170;2024-01-30T12:30:08;21.02;;;4.18;;
16426;SDS011;8322;-33.900;151.170;2024-01-30T12:32:39;25.10;;;4.53;;
16426;SDS011;8322;-33.900;151.170;2024-01-30T12:35:10;17.02;;;4.22;;
16426;SDS011;8322;-33.900;151.170;2024-01-30T12:37:40;19.33;;;4.10;;
16426;SDS011;8322;-33.900;151.170;2024-01-30T12:40:09;22.50;;;4.75;;
16426;SDS011;8322;-33.900;151.170;2024-01-30T12:42:42;28.25;;;5.28;;
16426;SDS011;8322;-33.900;151.170;2024-01-30T12:45:13;23.20;;;4.70;;
16426;SDS011;8322;-33.900;151.170;2024-01-30T12:47:46;22.95;;;4.75;;
16426;SDS011;8322;-33.900;151.170;2024-01-30T12:50:15;23.30;;;4.30;;
16426;SDS011;8322;-33.900;151.170;2024-01-30T12:52:45;18.98;;;4.28;;
16426;SDS011;8322;-33.900;151.170;2024-01-30T12:55:14;19.83;;;4.05;;
16426;SDS011;8322;-33.900;151.170;2024-01-30T12:57:46;20.50;;;4.20;;
16426;SDS011;8322;-33.900;151.170;2024-01-30T13:00:15;20.00;;;4.32;;
16426;SDS011;8322;-33.900;151.170;2024-01-30T13:02:45;34.25;;;4.60;;
16426;SDS011;8322;-33.900;151.170;2024-01-30T13:05:14;19.77;;;4.18;;
16426;SDS011;8322;-33.900;151.170;2024-01-30T13:07:44;25.20;;;4.40;;
16426;SDS011;8322;-33.900;151.170;2024-01-30T13:10:13;21.35;;;4.20;;
16426;SDS011;8322;-33.900;151.170;2024-01-30T13:12:43;18.58;;;4.32;;
16426;SDS011;8322;-33.900;151.170;2024-01-30T13:15:16;24.52;;;4.57;;
16426;SDS011;8322;-33.900;151.170;2024-01-30T13:17:45;20.77;;;4.03;;
16426;SDS011;8322;-33.900;151.170;2024-01-30T13:20:15;25.08;;;4.32;;
16426;SDS011;8322;-33.900;151.170;2024-01-30T13:22:46;20.48;;;4.20;;
16426;SDS011;8322;-33.900;151.170;2024-01-30T13:25:17;23.90;;;4.35;;
16426;SDS011;8322;-33.900;151.170;2024-01-30T13:27:47;19.63;;;4.13;;
16426;SDS011;8322;-33.900;151.170;2024-01-30T13:30:18;21.98;;;4.18;;
16426;SDS011;8322;-33.900;151.170;2024-01-30T13:32:47;28.13;;;4.00;;
16426;SDS011;8322;-33.900;151.170;2024-01-30T13:35:17;20.75;;;4.40;;
16426;SDS011;8322;-33.900;151.170;2024-01-30T13:37:46;19.88;;;4.22;;
16426;SDS011;8322;-33.900;151.170;2024-01-30T13:40:16;26.42;;;4.70;;
16426;SDS011;8322;-33.900;151.170;2024-01-30T13:42:45;22.95;;;4.57;;
16426;SDS011;8322;-33.900;151.170;2024-01-30T13:45:15;20.50;;;3.88;;
16426;SDS011;8322;-33.900;151.170;2024-01-30T13:47:46;19.95;;;4.53;;
16426;SDS011;8322;-33.900;151.170;2024-01-30T13:50:15;24.95;;;4.57;;
16426;SDS011;8322;-33.900;151.170;2024-01-30T13:52:48;26.75;;;4.90;;
16426;SDS011;8322;-33.900;151.170;2024-01-30T13:55:18;24.52;;;4.47;;
16426;SDS011;8322;-33.900;151.170;2024-01-30T13:57:47;23.35;;;4.28;;
16426;SDS011;8322;-33.900;151.170;2024-01-30T14:00:17;34.47;;;4.90;;
16426;SDS011;8322;-33.900;151.170;2024-01-30T14:02:50;35.42;;;5.05;;
16426;SDS011;8322;-33.900;151.170;2024-01-30T14:05:20;20.00;;;4.57;;
16426;SDS011;8322;-33.900;151.170;2024-01-30T14:07:50;18.83;;;4.60;;
16426;SDS011;8322;-33.900;151.170;2024-01-30T14:10:20;22.88;;;4.60;;
16426;SDS011;8322;-33.900;151.170;2024-01-30T14:12:49;21.98;;;4.80;;
16426;SDS011;8322;-33.900;151.170;2024-01-30T14:15:18;21.42;;;5.15;;
16426;SDS011;8322;-33.900;151.170;2024-01-30T14:17:50;21.17;;;5.00;;
16426;SDS011;8322;-33.900;151.170;2024-01-30T14:20:19;18.77;;;4.45;;
16426;SDS011;8322;-33.900;151.170;2024-01-30T14:22:49;24.10;;;5.28;;
16426;SDS011;8322;-33.900;151.170;2024-01-30T14:25:19;19.83;;;4.15;;
16426;SDS011;8322;-33.900;151.170;2024-01-30T14:27:48;26.42;;;5.38;;
16426;SDS011;8322;-33.900;151.170;2024-01-30T14:30:18;28.83;;;5.15;;
16426;SDS011;8322;-33.900;151.170;2024-01-30T14:32:49;21.50;;;4.72;;
16426;SDS011;8322;-33.900;151.170;2024-01-30T14:35:19;15.88;;;3.78;;